Cemaes Bay, United Kingdom
Current Conditions -  °F | °C
As of 11:50 AM on Thursday 30 Oct 2014 (Local Time) from EGOV Reporting Station
Broken Clouds Broken Clouds  
Wind Chill: 59°   Ceiling: 2000
Heat Index: 59°   Visibility: 6mi
Dew Point: 57°   Wind: 17mph
Humidity: 94%   Direction: 180°S
Pressure: 29.91"   Gusts: NA
Location:  53.41°N, 4.46°W
Report Text: EGOV 301150Z 18015KT 9999 FEW004 BKN020 15/14 Q1013 WHT TEMPO SCT010 GRN
Loading
Personal Weather Stations






























Interactive Weather Map New forecast layout! Learn more

10-Day Weather Forecast

Advertisements
Track Severe Weather on mobile